Time;durP1;ratioP1;P1;durP2;ratioP2;P2;SDS_P1;SDS_P2;PMS_P1;PMS_P2;Temp;Humidity;BMP_temperature;BMP_pressure;BME280_temperature;BME280_humidity;BME280_pressure;Samples;Min_cycle;Max_cycle;Signal;HPM_P1;HPM_P2
2021/09/22 00:02:18;;;;;;;2.03;1.30;;;26.30;99.90;;;;;;6240452;23;20184;-96
2021/09/22 00:04:54;;;;;;;2.53;1.30;;;26.10;99.90;;;;;;6242736;23;20176;-96
2021/09/22 00:07:27;;;;;;;2.40;1.20;;;26.00;99.90;;;;;;6239954;23;20164;-96
2021/09/22 00:10:01;;;;;;;1.30;1.20;;;25.80;99.90;;;;;;6229784;23;20183;-96
2021/09/22 00:12:34;;;;;;;2.53;1.37;;;25.30;99.90;;;;;;6228807;23;20632;-96
2021/09/22 00:15:09;;;;;;;2.30;1.23;;;25.10;99.90;;;;;;6224611;23;20169;-96
2021/09/22 00:17:41;;;;;;;3.70;1.20;;;24.80;99.90;;;;;;6233785;23;20172;-96
2021/09/22 00:20:22;;;;;;;4.53;1.27;;;24.60;99.90;;;;;;6235980;23;20185;-96
2021/09/22 00:23:05;;;;;;;1.93;1.20;;;24.40;99.90;;;;;;6230341;23;20180;-96
2021/09/22 00:25:42;;;;;;;1.40;1.20;;;24.10;99.90;;;;;;6234051;23;20190;-96
2021/09/22 00:28:16;;;;;;;3.70;1.43;;;23.90;99.90;;;;;;6239968;23;20217;-96
2021/09/22 00:30:55;;;;;;;3.40;1.23;;;23.80;99.90;;;;;;6215989;23;20192;-96
2021/09/22 00:33:28;;;;;;;1.40;1.30;;;23.70;99.90;;;;;;6217893;23;20208;-96
2021/09/22 00:36:01;;;;;;;1.30;1.20;;;23.70;99.90;;;;;;6230568;23;20173;-96
2021/09/22 00:38:33;;;;;;;2.33;1.33;;;23.60;99.90;;;;;;6230588;23;20175;-96
2021/09/22 00:44:21;;;;;;;2.63;1.37;;;23.40;99.90;;;;;;6228685;23;20232;-95
2021/09/22 00:46:58;;;;;;;3.37;1.20;;;23.30;99.90;;;;;;6236750;23;20169;-96
2021/09/22 00:49:34;;;;;;;3.23;1.50;;;23.10;99.90;;;;;;6240506;23;20179;-96
2021/09/22 00:52:09;;;;;;;4.30;1.40;;;22.90;99.90;;;;;;6233512;23;20180;-96
2021/09/22 00:54:43;;;;;;;2.80;1.40;;;22.80;99.90;;;;;;6211904;23;20169;-96
2021/09/22 00:57:22;;;;;;;2.60;1.60;;;22.70;99.90;;;;;;6232950;23;20169;-96
2021/09/22 01:02:52;;;;;;;3.23;1.40;;;22.50;99.90;;;;;;6235017;23;20181;-96
2021/09/22 01:05:27;;;;;;;4.87;1.40;;;22.40;99.90;;;;;;6237236;23;20168;-96
2021/09/22 01:08:04;;;;;;;2.80;1.50;;;22.30;99.90;;;;;;6235342;23;20176;-96
2021/09/22 01:10:37;;;;;;;2.23;1.30;;;22.20;99.90;;;;;;6210746;23;20167;-96
2021/09/22 01:13:16;;;;;;;2.63;1.40;;;22.00;99.90;;;;;;6237090;23;20168;-96
2021/09/22 01:15:49;;;;;;;1.87;1.40;;;22.00;99.90;;;;;;6235380;23;20218;-96
2021/09/22 01:18:22;;;;;;;2.57;1.20;;;21.90;99.90;;;;;;6235004;23;20232;-96
2021/09/22 01:37:08;;;;;;;2.03;1.20;;;21.00;99.90;;;;;;6240440;23;20199;-96
2021/09/22 01:39:42;;;;;;;5.27;1.60;;;20.70;99.90;;;;;;6239533;23;20179;-96
2021/09/22 01:42:17;;;;;;;2.03;1.37;;;20.50;99.90;;;;;;6240322;23;20227;-96
2021/09/22 01:44:50;;;;;;;2.87;1.50;;;20.40;99.90;;;;;;6212996;23;20194;-96
2021/09/22 01:47:22;;;;;;;2.30;1.20;;;20.20;99.90;;;;;;6236480;23;20176;-96
2021/09/22 01:50:02;;;;;;;3.07;1.63;;;20.00;99.90;;;;;;6231465;23;20164;-96
2021/09/22 01:52:40;;;;;;;1.80;1.43;;;19.90;99.90;;;;;;6227437;23;20557;-96
2021/09/22 01:55:16;;;;;;;3.70;1.77;;;19.80;99.90;;;;;;6236405;23;20211;-96
2021/09/22 01:57:50;;;;;;;4.60;1.50;;;19.70;99.90;;;;;;6207506;23;20214;-96
2021/09/22 02:03:49;;;;;;;2.13;1.60;;;19.40;99.90;;;;;;6168653;23;20192;-96
2021/09/22 02:06:23;;;;;;;3.83;1.60;;;19.20;99.90;;;;;;6152299;23;20181;-96
2021/09/22 02:09:00;;;;;;;2.43;1.60;;;19.10;99.90;;;;;;6169714;23;20178;-96
2021/09/22 02:11:33;;;;;;;1.97;1.80;;;19.00;99.90;;;;;;6150907;23;20216;-96
2021/09/22 02:14:05;;;;;;;2.37;2.03;;;18.90;99.90;;;;;;6171993;23;20228;-94
2021/09/22 02:16:37;;;;;;;3.23;1.87;;;18.70;99.90;;;;;;6172534;23;20170;-95
2021/09/22 02:19:10;;;;;;;1.97;1.80;;;18.60;99.90;;;;;;6176158;23;20312;-95
2021/09/22 02:21:41;;;;;;;1.60;1.50;;;18.50;99.90;;;;;;6170515;23;20217;-95
2021/09/22 02:24:18;;;;;;;8.23;1.93;;;18.40;99.90;;;;;;6171763;23;20178;-95
2021/09/22 02:26:52;;;;;;;5.13;1.80;;;18.30;99.90;;;;;;6163858;23;20264;-96
2021/09/22 02:29:24;;;;;;;5.07;1.80;;;18.20;99.90;;;;;;6158681;23;20185;-95
2021/09/22 02:31:56;;;;;;;2.33;1.80;;;18.10;99.90;;;;;;6157506;23;20178;-96
2021/09/22 02:34:27;;;;;;;2.50;1.50;;;18.10;99.90;;;;;;6157727;23;20202;-96
2021/09/22 02:36:59;;;;;;;3.87;1.60;;;18.10;99.90;;;;;;6160071;23;20189;-96
2021/09/22 02:39:34;;;;;;;3.53;1.67;;;18.10;99.90;;;;;;6164029;23;20182;-96
2021/09/22 02:42:07;;;;;;;2.47;1.60;;;18.00;99.90;;;;;;6231532;23;20235;-96
2021/09/22 02:44:39;;;;;;;2.50;1.67;;;18.00;99.90;;;;;;6234068;23;20176;-96
2021/09/22 02:47:10;;;;;;;3.50;1.87;;;17.80;99.90;;;;;;6234419;23;20180;-96
2021/09/22 02:49:42;;;;;;;2.93;1.60;;;17.80;99.90;;;;;;6210984;23;20156;-96
2021/09/22 02:52:17;;;;;;;3.27;1.70;;;17.70;99.90;;;;;;6236935;23;20168;-96
2021/09/22 02:54:52;;;;;;;2.40;1.80;;;17.60;99.90;;;;;;6236733;23;20164;-95
2021/09/22 02:57:24;;;;;;;6.10;1.97;;;17.60;99.90;;;;;;6234391;23;20178;-95
2021/09/22 02:59:56;;;;;;;6.03;1.80;;;17.50;99.90;;;;;;6238847;23;20160;-96
2021/09/22 03:02:28;;;;;;;3.20;1.87;;;17.40;99.90;;;;;;6240808;23;20196;-95
2021/09/22 03:05:01;;;;;;;2.67;2.00;;;17.40;99.90;;;;;;6240315;23;20187;-93
2021/09/22 03:07:37;;;;;;;5.57;2.47;;;17.30;99.90;;;;;;6238832;23;20332;-92
2021/09/22 03:10:25;;;;;;;3.17;1.87;;;17.20;99.90;;;;;;6212619;23;20177;-92
2021/09/22 03:12:58;;;;;;;3.40;2.13;;;17.10;99.90;;;;;;6237184;23;20188;-92
2021/09/22 03:15:29;;;;;;;2.07;1.67;;;17.00;99.90;;;;;;6236540;23;20176;-94
2021/09/22 03:18:01;;;;;;;3.13;1.90;;;16.90;99.90;;;;;;6235358;23;20215;-94
2021/09/22 03:20:34;;;;;;;4.07;2.07;;;16.90;99.90;;;;;;6236110;23;20177;-96
2021/09/22 03:23:07;;;;;;;2.97;1.83;;;16.80;99.90;;;;;;6235839;23;20200;-94
2021/09/22 03:25:42;;;;;;;4.00;2.10;;;16.80;99.90;;;;;;6237722;23;20173;-94
2021/09/22 03:28:14;;;;;;;2.63;2.03;;;16.70;99.90;;;;;;6235362;23;20243;-94
2021/09/22 03:33:50;;;;;;;2.77;1.87;;;16.70;99.90;;;;;;6235225;23;20181;-95
2021/09/22 03:36:22;;;;;;;3.00;1.80;;;16.70;99.90;;;;;;6212473;23;20187;-95
2021/09/22 03:38:55;;;;;;;3.30;2.03;;;16.60;99.90;;;;;;6235730;23;20176;-96
2021/09/22 03:41:29;;;;;;;2.03;1.83;;;16.50;99.90;;;;;;6235218;23;20176;-96
2021/09/22 03:44:01;;;;;;;4.10;2.03;;;16.50;99.90;;;;;;6225658;22;20222;-96
2021/09/22 03:49:14;;;;;;;4.27;2.10;;;16.40;99.90;;;;;;6200206;23;20271;-96
2021/09/22 03:57:06;;;;;;;4.43;2.27;;;16.20;99.90;;;;;;6237237;23;20191;-96
2021/09/22 03:59:54;;;;;;;5.43;2.47;;;16.20;99.90;;;;;;6213592;23;20180;-96
2021/09/22 04:10:33;;;;;;;6.90;3.60;;;16.10;99.90;;;;;;6239733;23;20187;-94
2021/09/22 04:13:10;;;;;;;5.67;3.70;;;16.00;99.90;;;;;;6236069;23;20250;-93
2021/09/22 04:15:43;;;;;;;5.53;3.00;;;16.00;99.90;;;;;;6243719;23;20199;-90
2021/09/22 04:18:16;;;;;;;3.93;2.80;;;15.90;99.90;;;;;;6243509;23;20180;-95
2021/09/22 04:20:48;;;;;;;4.80;2.57;;;15.80;99.90;;;;;;6242372;23;20232;-96
2021/09/22 04:23:21;;;;;;;6.33;2.90;;;15.80;99.90;;;;;;6235638;23;20215;-95
2021/09/22 04:26:04;;;;;;;4.97;2.70;;;15.80;99.90;;;;;;6219763;23;20175;-93
2021/09/22 04:31:14;;;;;;;2.70;2.27;;;15.70;99.90;;;;;;6233536;23;20259;-95
2021/09/22 04:33:45;;;;;;;3.47;2.50;;;15.60;99.90;;;;;;6218336;23;20263;-95
2021/09/22 04:36:18;;;;;;;2.80;2.33;;;15.60;99.90;;;;;;6243487;23;20168;-96
2021/09/22 04:38:53;;;;;;;3.30;2.33;;;15.60;99.90;;;;;;6218218;23;20164;-96
2021/09/22 04:41:27;;;;;;;5.37;2.43;;;15.50;99.90;;;;;;6211826;23;20192;-96
2021/09/22 04:44:01;;;;;;;5.60;2.17;;;15.50;99.90;;;;;;6240582;23;20208;-96
2021/09/22 04:46:43;;;;;;;4.50;2.10;;;15.50;99.90;;;;;;6240822;23;20236;-96
2021/09/22 04:49:16;;;;;;;3.83;2.27;;;15.40;99.90;;;;;;6241671;23;20172;-96
2021/09/22 04:51:52;;;;;;;6.13;3.03;;;15.40;99.90;;;;;;6239653;23;20180;-96
2021/09/22 04:54:27;;;;;;;3.30;2.53;;;15.40;99.90;;;;;;6236080;23;20272;-96
2021/09/22 04:56:58;;;;;;;3.27;2.10;;;15.40;99.90;;;;;;6232666;23;20180;-96
2021/09/22 04:59:34;;;;;;;3.13;1.93;;;15.30;99.90;;;;;;6229164;23;20168;-96
2021/09/22 05:02:10;;;;;;;2.10;1.80;;;15.30;99.90;;;;;;6231052;23;20168;-96
2021/09/22 05:04:44;;;;;;;3.67;2.77;;;15.30;99.90;;;;;;6210139;23;20187;-96
2021/09/22 05:07:16;;;;;;;2.20;1.77;;;15.20;99.90;;;;;;6232779;23;20176;-95
2021/09/22 05:09:49;;;;;;;3.53;2.37;;;15.20;99.90;;;;;;6229786;23;20176;-95
2021/09/22 05:12:23;;;;;;;3.50;2.40;;;15.20;99.90;;;;;;6233289;23;20168;-96
2021/09/22 05:14:56;;;;;;;2.47;2.00;;;15.20;99.90;;;;;;6232478;23;20192;-94
2021/09/22 05:17:39;;;;;;;4.53;2.23;;;15.10;99.90;;;;;;6224192;23;20176;-95
2021/09/22 05:20:12;;;;;;;3.33;2.20;;;15.10;99.90;;;;;;6224944;23;20511;-95
2021/09/22 05:22:46;;;;;;;3.63;2.30;;;15.10;99.90;;;;;;6223933;23;20215;-96
2021/09/22 05:25:22;;;;;;;4.60;2.13;;;15.00;99.90;;;;;;6226652;23;20193;-95
2021/09/22 05:27:57;;;;;;;3.20;2.40;;;15.00;99.90;;;;;;6227155;23;20180;-95
2021/09/22 05:30:33;;;;;;;2.67;1.90;;;15.00;99.90;;;;;;6224145;23;20168;-96
2021/09/22 05:33:13;;;;;;;5.40;1.90;;;15.00;99.90;;;;;;6223514;23;20215;-95
2021/09/22 05:35:49;;;;;;;3.00;1.90;;;14.90;99.90;;;;;;6221267;23;20267;-96
2021/09/22 05:38:20;;;;;;;4.80;2.03;;;14.80;99.90;;;;;;6221766;23;20168;-96
2021/09/22 05:40:52;;;;;;;5.17;2.23;;;14.80;99.90;;;;;;6195112;23;20180;-96
2021/09/22 05:43:24;;;;;;;5.70;2.17;;;14.80;99.90;;;;;;6221936;23;20201;-96
2021/09/22 05:45:55;;;;;;;2.60;1.87;;;14.80;99.90;;;;;;6224327;23;20165;-96
2021/09/22 05:48:30;;;;;;;2.93;2.20;;;14.80;99.90;;;;;;6221358;23;20176;-96
2021/09/22 05:51:03;;;;;;;3.63;2.43;;;14.80;99.90;;;;;;6195969;23;20490;-96
2021/09/22 05:53:35;;;;;;;2.80;2.10;;;14.70;99.90;;;;;;6221915;23;20176;-95
2021/09/22 05:56:08;;;;;;;4.00;2.30;;;14.70;99.90;;;;;;6198696;23;20172;-96
2021/09/22 05:58:40;;;;;;;5.53;2.37;;;14.60;99.90;;;;;;6225917;23;20165;-95
2021/09/22 06:01:12;;;;;;;3.43;2.07;;;14.60;99.90;;;;;;6240834;23;20203;-96
2021/09/22 06:03:46;;;;;;;3.53;2.20;;;14.50;99.90;;;;;;6241441;23;20203;-95
2021/09/22 06:06:29;;;;;;;2.70;2.30;;;14.50;99.90;;;;;;6242529;23;20156;-95
2021/09/22 06:09:09;;;;;;;3.23;2.20;;;14.50;99.90;;;;;;6205965;23;20218;-96
2021/09/22 06:11:40;;;;;;;5.90;2.20;;;14.40;99.90;;;;;;6239437;23;20184;-96
2021/09/22 06:14:12;;;;;;;5.23;2.03;;;14.40;99.90;;;;;;6236325;23;20164;-95
2021/09/22 06:16:44;;;;;;;2.90;2.27;;;14.40;99.90;;;;;;6231304;23;20272;-95
2021/09/22 06:22:10;;;;;;;4.67;2.70;;;14.30;99.90;;;;;;6223840;23;20177;-95
2021/09/22 06:24:42;;;;;;;4.13;2.10;;;14.30;99.90;;;;;;6225638;23;20228;-95
2021/09/22 06:27:25;;;;;;;5.37;2.33;;;14.30;99.90;;;;;;6234794;23;20176;-94
2021/09/22 06:29:58;;;;;;;3.50;2.33;;;14.30;99.90;;;;;;6232346;23;20177;-95
2021/09/22 06:32:30;;;;;;;5.37;2.10;;;14.20;99.90;;;;;;6225077;23;20226;-95
2021/09/22 06:35:06;;;;;;;3.80;2.60;;;14.20;99.90;;;;;;6199088;23;20206;-94
2021/09/22 06:37:38;;;;;;;3.37;1.97;;;14.20;99.90;;;;;;6234341;23;20183;-96
2021/09/22 06:40:11;;;;;;;2.47;2.20;;;14.20;99.90;;;;;;6202217;23;20220;-96
2021/09/22 06:42:43;;;;;;;5.30;2.33;;;14.20;99.90;;;;;;6222620;23;20165;-96
2021/09/22 06:45:18;;;;;;;2.20;2.00;;;14.10;99.90;;;;;;6221480;23;20200;-96
2021/09/22 06:47:51;;;;;;;2.73;2.20;;;14.10;99.90;;;;;;6221949;23;20186;-96
2021/09/22 06:50:27;;;;;;;5.37;1.90;;;14.00;99.90;;;;;;6222872;23;20168;-96
2021/09/22 06:52:59;;;;;;;5.03;2.10;;;14.00;99.90;;;;;;6196521;23;20168;-96
2021/09/22 06:55:31;;;;;;;2.97;1.80;;;14.00;99.90;;;;;;6197352;23;20167;-96
2021/09/22 06:58:03;;;;;;;2.30;1.93;;;13.90;99.90;;;;;;6224031;23;20192;-96
2021/09/22 07:00:35;;;;;;;5.30;2.30;;;13.90;99.90;;;;;;6222367;23;20547;-96
2021/09/22 07:03:11;;;;;;;5.27;2.40;;;13.90;99.90;;;;;;6222686;23;20173;-96
2021/09/22 07:05:45;;;;;;;3.00;2.10;;;13.90;99.90;;;;;;6223064;23;20165;-96
2021/09/22 07:08:17;;;;;;;2.57;2.13;;;13.90;99.90;;;;;;6224656;23;20200;-96
2021/09/22 07:10:49;;;;;;;3.53;2.13;;;13.80;99.90;;;;;;6221490;23;20192;-96
2021/09/22 07:13:22;;;;;;;2.77;2.50;;;13.80;99.90;;;;;;6196391;23;20164;-94
2021/09/22 07:15:57;;;;;;;2.83;2.37;;;13.70;99.90;;;;;;6222279;23;20164;-95
2021/09/22 07:18:29;;;;;;;2.57;2.37;;;13.70;99.90;;;;;;6221723;23;20234;-95
2021/09/22 07:21:05;;;;;;;3.97;2.20;;;13.60;99.90;;;;;;6219981;23;20187;-94
2021/09/22 07:23:36;;;;;;;4.00;2.50;;;13.60;99.90;;;;;;6221574;23;20450;-95
2021/09/22 07:26:11;;;;;;;4.10;2.30;;;13.60;99.90;;;;;;6221543;23;20713;-96
2021/09/22 07:28:42;;;;;;;2.40;2.20;;;13.60;99.90;;;;;;6221664;23;20510;-95
2021/09/22 07:31:13;;;;;;;3.97;2.40;;;13.50;99.90;;;;;;6221659;23;20227;-96
2021/09/22 07:33:45;;;;;;;5.33;2.60;;;13.50;99.90;;;;;;6195852;23;20180;-95
2021/09/22 07:36:19;;;;;;;7.00;2.50;;;13.50;99.90;;;;;;6195635;23;20183;-96
2021/09/22 07:38:50;;;;;;;3.03;2.23;;;13.50;99.90;;;;;;6222450;23;20168;-94
2021/09/22 07:41:22;;;;;;;2.43;2.23;;;13.50;99.90;;;;;;6220758;23;20263;-96
2021/09/22 07:43:54;;;;;;;6.67;2.63;;;13.40;99.90;;;;;;6221258;23;20647;-94
2021/09/22 07:46:25;;;;;;;5.07;2.50;;;13.40;99.90;;;;;;6220886;23;20177;-96
2021/09/22 07:48:56;;;;;;;2.30;2.10;;;13.40;99.90;;;;;;6195538;23;20232;-96
2021/09/22 07:51:30;;;;;;;2.47;2.23;;;13.40;99.90;;;;;;6228062;23;20691;-96
2021/09/22 07:54:02;;;;;;;4.40;2.67;;;13.40;99.90;;;;;;6222922;23;20222;-96
2021/09/22 07:56:34;;;;;;;2.60;2.10;;;13.40;99.90;;;;;;6234621;23;20180;-96
2021/09/22 07:59:05;;;;;;;4.00;2.70;;;13.40;99.90;;;;;;6198694;23;20173;-96
2021/09/22 08:01:36;;;;;;;4.50;2.43;;;13.30;99.90;;;;;;6221395;23;20169;-96
2021/09/22 08:04:07;;;;;;;3.07;2.47;;;13.30;99.90;;;;;;6220917;23;20269;-96
2021/09/22 08:06:41;;;;;;;5.17;2.63;;;13.30;99.90;;;;;;6221356;23;20638;-96
2021/09/22 08:09:13;;;;;;;4.07;2.87;;;13.20;99.90;;;;;;6221767;23;20234;-96
2021/09/22 08:11:44;;;;;;;6.33;2.50;;;13.20;99.90;;;;;;6225278;23;20176;-96
2021/09/22 08:14:35;;;;;;;3.23;2.30;;;13.20;99.90;;;;;;6226047;23;20173;-95
2021/09/22 08:17:07;;;;;;;2.83;2.50;;;13.20;99.90;;;;;;6240055;23;20248;-95
2021/09/22 08:19:39;;;;;;;3.43;2.60;;;13.20;99.90;;;;;;6242464;23;20168;-95
2021/09/22 08:22:12;;;;;;;2.63;2.43;;;13.20;99.90;;;;;;6230757;23;20187;-93
2021/09/22 08:24:43;;;;;;;6.77;2.60;;;13.20;99.90;;;;;;6224404;23;20199;-94
2021/09/22 08:27:15;;;;;;;3.27;2.50;;;13.20;99.90;;;;;;6222066;23;20191;-95
2021/09/22 08:29:46;;;;;;;3.23;2.27;;;13.10;99.90;;;;;;6220354;23;20181;-94
2021/09/22 08:32:18;;;;;;;3.37;2.50;;;13.10;99.90;;;;;;6219660;23;20199;-95
2021/09/22 08:34:50;;;;;;;5.13;2.73;;;13.10;99.90;;;;;;6194584;23;20252;-95
2021/09/22 08:37:24;;;;;;;3.87;2.40;;;13.20;99.90;;;;;;6220260;23;20180;-95
2021/09/22 08:42:24;;;;;;;5.13;2.53;;;13.30;99.90;;;;;;6223657;23;20403;-96
2021/09/22 08:44:56;;;;;;;5.00;2.53;;;13.20;99.90;;;;;;6221618;23;20196;-96
2021/09/22 08:47:27;;;;;;;5.27;3.13;;;13.10;99.90;;;;;;6221353;23;20181;-96
2021/09/22 08:50:02;;;;;;;5.97;2.43;;;13.10;99.90;;;;;;6220999;23;20168;-96
2021/09/22 08:52:35;;;;;;;5.77;2.97;;;13.10;99.90;;;;;;6219559;23;20180;-96
2021/09/22 08:55:07;;;;;;;4.43;3.20;;;13.00;99.90;;;;;;6221646;23;20196;-96
2021/09/22 08:57:39;;;;;;;4.27;2.70;;;13.00;99.90;;;;;;6221013;23;20172;-96
2021/09/22 09:00:13;;;;;;;2.60;2.40;;;13.00;99.90;;;;;;6221452;23;20176;-96
2021/09/22 09:02:48;;;;;;;3.33;2.50;;;13.10;99.90;;;;;;6194559;23;20619;-96
2021/09/22 09:05:21;;;;;;;3.07;2.77;;;13.10;99.90;;;;;;6221277;23;20670;-96
2021/09/22 09:07:56;;;;;;;3.87;2.67;;;13.00;99.90;;;;;;6220621;23;20203;-96
2021/09/22 09:10:31;;;;;;;2.70;2.50;;;13.00;99.90;;;;;;6221857;23;20203;-96
2021/09/22 09:13:06;;;;;;;4.27;2.90;;;13.00;99.90;;;;;;6220615;23;20176;-96
2021/09/22 09:15:39;;;;;;;4.77;2.60;;;13.00;99.90;;;;;;6195389;23;20168;-95
2021/09/22 09:18:15;;;;;;;5.40;2.70;;;13.00;99.90;;;;;;6220550;23;20187;-96
2021/09/22 09:20:49;;;;;;;4.97;2.40;;;12.90;99.90;;;;;;6219571;23;20646;-95
2021/09/22 09:23:24;;;;;;;3.20;2.87;;;12.90;99.90;;;;;;6221120;23;20176;-96
2021/09/22 09:26:00;;;;;;;3.63;2.73;;;12.90;99.90;;;;;;6223641;23;20203;-95
2021/09/22 09:28:32;;;;;;;3.70;2.37;;;12.80;99.90;;;;;;6221621;23;20164;-95
2021/09/22 09:31:06;;;;;;;7.07;2.80;;;12.80;99.90;;;;;;6220380;23;20558;-95
2021/09/22 09:33:41;;;;;;;3.80;2.53;;;12.80;99.90;;;;;;6222175;23;20235;-95
2021/09/22 09:36:24;;;;;;;4.97;3.00;;;12.80;99.90;;;;;;6222774;23;20186;-95
2021/09/22 09:39:11;;;;;;;4.83;2.70;;;12.80;99.90;;;;;;6223736;23;20169;-94
2021/09/22 09:41:48;;;;;;;6.07;2.73;;;12.80;99.90;;;;;;6226608;23;20183;-94
2021/09/22 09:44:21;;;;;;;6.20;2.13;;;12.80;99.90;;;;;;6215292;23;20199;-96
2021/09/22 09:46:55;;;;;;;4.43;3.10;;;12.80;99.90;;;;;;6241912;23;20200;-95
2021/09/22 09:49:31;;;;;;;4.90;2.67;;;12.80;99.90;;;;;;6241927;23;20161;-96
2021/09/22 09:52:03;;;;;;;4.30;2.80;;;12.80;99.90;;;;;;6240872;23;20168;-96
2021/09/22 09:54:38;;;;;;;4.60;2.70;;;12.70;99.90;;;;;;6241685;23;20320;-96
2021/09/22 09:57:13;;;;;;;5.33;2.97;;;12.70;99.90;;;;;;6237247;23;20231;-96
2021/09/22 09:59:48;;;;;;;4.30;3.23;;;12.80;99.90;;;;;;6220902;23;20202;-96
2021/09/22 10:02:30;;;;;;;4.07;3.00;;;12.80;99.90;;;;;;6221104;23;20184;-95
2021/09/22 10:05:03;;;;;;;5.40;2.90;;;12.80;99.90;;;;;;6226971;23;20234;-96
2021/09/22 10:07:36;;;;;;;4.30;3.20;;;12.80;99.90;;;;;;6226908;23;20541;-96
2021/09/22 10:10:12;;;;;;;3.83;3.10;;;12.80;99.90;;;;;;6220789;23;20169;-96
2021/09/22 10:12:44;;;;;;;5.30;3.13;;;12.80;99.90;;;;;;6220067;23;20530;-95
2021/09/22 10:15:16;;;;;;;3.77;3.07;;;12.80;99.90;;;;;;6220731;23;20260;-95
2021/09/22 10:17:49;;;;;;;5.00;3.00;;;12.80;99.90;;;;;;6219767;23;20172;-95
2021/09/22 10:20:20;;;;;;;5.57;3.30;;;12.80;99.90;;;;;;6194895;23;20185;-95
2021/09/22 10:22:51;;;;;;;3.37;3.03;;;12.80;99.90;;;;;;6219490;23;20176;-95
2021/09/22 10:25:25;;;;;;;5.40;2.97;;;12.80;99.90;;;;;;6194882;23;20227;-95
2021/09/22 10:27:58;;;;;;;4.10;2.80;;;12.80;99.90;;;;;;6221311;23;20235;-96
2021/09/22 10:30:37;;;;;;;6.33;3.50;;;12.80;99.90;;;;;;6231391;23;20185;-95
2021/09/22 10:33:26;;;;;;;3.87;3.20;;;12.80;99.90;;;;;;6238635;23;20172;-94
2021/09/22 10:35:58;;;;;;;4.70;3.30;;;12.90;99.90;;;;;;6211840;23;20173;-94
2021/09/22 10:38:50;;;;;;;5.43;2.90;;;12.90;99.90;;;;;;6225668;23;20215;-95
2021/09/22 10:41:34;;;;;;;6.03;3.93;;;12.80;99.90;;;;;;6228877;23;20525;-95
2021/09/22 10:44:06;;;;;;;5.07;3.13;;;12.80;99.90;;;;;;6233282;23;20255;-94
2021/09/22 10:46:38;;;;;;;5.00;3.53;;;12.90;99.90;;;;;;6221170;23;20259;-96
2021/09/22 10:49:22;;;;;;;4.40;3.17;;;12.90;99.90;;;;;;6221164;23;20184;-96
2021/09/22 10:51:54;;;;;;;4.87;3.13;;;12.90;99.90;;;;;;6216915;23;20478;-96
2021/09/22 10:54:27;;;;;;;3.13;2.83;;;12.90;99.90;;;;;;6194753;23;20208;-96
2021/09/22 10:57:04;;;;;;;3.60;3.10;;;13.00;99.90;;;;;;6221878;23;20244;-96
2021/09/22 10:59:38;;;;;;;6.57;3.33;;;13.00;99.90;;;;;;6220857;23;20611;-95
2021/09/22 11:02:12;;;;;;;4.47;3.20;;;13.00;99.90;;;;;;6220428;23;20172;-95
2021/09/22 11:04:58;;;;;;;5.20;3.03;;;13.00;99.90;;;;;;6229735;23;20175;-96
2021/09/22 11:07:58;;;;;;;4.57;3.23;;;13.00;99.90;;;;;;6239225;23;20303;-96
2021/09/22 11:10:54;;;;;;;6.23;3.30;;;13.10;99.90;;;;;;6206328;23;20254;-95
2021/09/22 11:13:43;;;;;;;5.77;3.40;;;13.10;99.90;;;;;;6237170;23;20180;-96
2021/09/22 11:16:23;;;;;;;3.57;3.20;;;13.10;99.90;;;;;;6224516;23;20169;-96
2021/09/22 11:18:57;;;;;;;5.57;2.97;;;13.20;99.90;;;;;;6220008;23;20434;-94
2021/09/22 11:21:29;;;;;;;5.00;3.20;;;13.10;99.90;;;;;;6219795;23;20176;-95
2021/09/22 11:24:14;;;;;;;3.97;3.20;;;13.00;99.90;;;;;;6222207;23;20168;-95
2021/09/22 11:26:51;;;;;;;5.10;3.30;;;13.00;99.90;;;;;;6221078;23;20254;-95
2021/09/22 11:29:45;;;;;;;5.30;3.50;;;13.00;99.90;;;;;;6196772;23;20169;-96
2021/09/22 11:32:34;;;;;;;6.53;3.33;;;12.90;99.90;;;;;;6220802;23;20180;-95
2021/09/22 11:35:10;;;;;;;4.13;3.50;;;12.90;99.90;;;;;;6195818;23;20179;-96
2021/09/22 11:37:43;;;;;;;4.33;3.00;;;12.90;99.90;;;;;;6221432;23;20168;-95
2021/09/22 11:40:19;;;;;;;5.40;3.47;;;12.90;99.90;;;;;;6221544;23;20169;-96
2021/09/22 11:43:00;;;;;;;4.80;3.60;;;12.90;99.90;;;;;;6220752;23;20176;-95
2021/09/22 11:45:39;;;;;;;3.93;3.27;;;12.90;99.90;;;;;;6220864;23;20179;-95
2021/09/22 11:48:13;;;;;;;5.93;3.50;;;13.00;99.90;;;;;;6221579;23;20176;-96
2021/09/22 11:50:46;;;;;;;5.00;3.50;;;13.00;99.90;;;;;;6222040;23;20173;-96
2021/09/22 11:53:19;;;;;;;4.53;3.30;;;13.00;99.90;;;;;;6195839;23;20490;-96
2021/09/22 11:55:52;;;;;;;6.13;3.50;;;13.00;99.90;;;;;;6221241;23;20207;-96
2021/09/22 11:58:25;;;;;;;4.57;3.40;;;13.10;99.90;;;;;;6221082;23;20172;-96
2021/09/22 12:01:01;;;;;;;3.77;2.90;;;13.10;99.90;;;;;;6221589;23;20184;-96
2021/09/22 12:03:35;;;;;;;3.67;3.10;;;13.10;99.90;;;;;;6196566;23;20188;-96
2021/09/22 12:06:11;;;;;;;5.30;3.60;;;13.10;99.90;;;;;;6195963;23;20215;-95
2021/09/22 12:08:46;;;;;;;4.43;3.30;;;13.10;99.90;;;;;;6196101;23;20231;-96
2021/09/22 12:11:20;;;;;;;4.47;3.50;;;13.00;99.90;;;;;;6219972;23;20183;-96
2021/09/22 12:13:52;;;;;;;4.43;4.03;;;13.20;99.90;;;;;;6222030;23;20168;-95
2021/09/22 12:16:29;;;;;;;7.03;3.40;;;13.10;99.90;;;;;;6220868;23;20184;-96
2021/09/22 12:19:02;;;;;;;4.50;3.63;;;13.00;99.90;;;;;;6221247;23;20187;-95
2021/09/22 12:21:34;;;;;;;4.87;3.30;;;13.00;99.90;;;;;;6220072;23;20180;-95
2021/09/22 12:24:07;;;;;;;7.00;3.20;;;13.00;99.90;;;;;;6195469;23;20173;-94
2021/09/22 12:26:52;;;;;;;5.77;3.47;;;12.90;99.90;;;;;;6220571;23;20331;-95
2021/09/22 12:29:23;;;;;;;5.60;3.20;;;12.90;99.90;;;;;;6220678;23;20168;-95
2021/09/22 12:31:57;;;;;;;3.70;3.30;;;13.00;99.90;;;;;;6220079;23;20627;-95
2021/09/22 12:34:31;;;;;;;4.90;3.80;;;13.00;99.90;;;;;;6220089;23;20255;-95
2021/09/22 12:37:03;;;;;;;3.93;3.40;;;13.00;99.90;;;;;;6219943;23;20259;-95
2021/09/22 12:39:34;;;;;;;3.80;3.47;;;13.00;99.90;;;;;;6196097;23;20310;-95
2021/09/22 12:42:08;;;;;;;5.07;3.60;;;13.00;99.90;;;;;;6219155;23;20517;-95
2021/09/22 12:44:55;;;;;;;7.13;3.40;;;13.10;99.90;;;;;;6219908;23;20686;-95
2021/09/22 12:47:31;;;;;;;6.33;3.83;;;13.10;99.90;;;;;;6171121;23;20200;-95
2021/09/22 12:50:12;;;;;;;7.23;3.73;;;13.10;99.90;;;;;;6221682;23;20563;-96
2021/09/22 12:52:46;;;;;;;5.03;3.17;;;13.10;99.90;;;;;;6210960;23;20184;-96
2021/09/22 12:55:23;;;;;;;5.37;3.10;;;13.10;99.90;;;;;;6242631;23;20160;-96
2021/09/22 12:57:57;;;;;;;4.53;3.43;;;13.20;99.90;;;;;;6213867;23;20165;-96
2021/09/22 13:00:37;;;;;;;6.03;3.50;;;13.20;99.90;;;;;;6226024;23;20509;-96
2021/09/22 13:03:16;;;;;;;5.10;4.20;;;13.20;99.90;;;;;;6228715;23;20168;-96
2021/09/22 13:05:50;;;;;;;4.87;3.43;;;13.20;99.90;;;;;;6222230;23;20210;-96
2021/09/22 13:08:25;;;;;;;7.47;4.33;;;13.20;99.90;;;;;;6220825;23;20209;-96
2021/09/22 13:11:02;;;;;;;5.03;3.73;;;13.30;99.90;;;;;;6219820;23;20242;-96
2021/09/22 13:13:39;;;;;;;7.90;4.60;;;13.30;99.90;;;;;;6221398;23;20670;-96
2021/09/22 13:16:19;;;;;;;8.00;4.17;;;13.30;99.90;;;;;;6220810;23;20168;-96
2021/09/22 13:18:53;;;;;;;8.00;3.77;;;13.30;99.90;;;;;;6220482;23;20184;-96
2021/09/22 13:21:24;;;;;;;7.10;3.60;;;13.40;99.90;;;;;;6222168;23;20203;-95
2021/09/22 13:23:57;;;;;;;6.67;3.40;;;13.30;99.90;;;;;;6223530;23;20255;-95
2021/09/22 13:26:29;;;;;;;4.97;3.30;;;13.40;99.90;;;;;;6221725;23;20183;-95
2021/09/22 13:29:03;;;;;;;5.60;3.43;;;13.40;99.90;;;;;;6223431;23;20176;-93
2021/09/22 13:31:37;;;;;;;4.07;3.13;;;13.50;99.90;;;;;;6234708;23;20171;-92
2021/09/22 13:34:13;;;;;;;5.33;3.30;;;13.50;99.90;;;;;;6240649;23;20251;-92
2021/09/22 13:36:46;;;;;;;4.63;3.00;;;13.50;99.90;;;;;;6236726;23;20218;-94
2021/09/22 13:39:18;;;;;;;4.43;2.90;;;13.50;99.90;;;;;;6224331;23;20173;-95
2021/09/22 13:41:50;;;;;;;6.00;2.97;;;13.60;99.90;;;;;;6218985;23;20188;-95
2021/09/22 13:44:21;;;;;;;5.40;2.83;;;13.60;99.90;;;;;;6223476;23;20173;-95
2021/09/22 13:46:54;;;;;;;5.30;2.40;;;13.60;99.90;;;;;;6223313;23;20168;-94
2021/09/22 13:49:29;;;;;;;2.90;2.50;;;13.60;99.90;;;;;;6221270;23;20203;-96
2021/09/22 13:52:01;;;;;;;5.47;2.53;;;13.70;99.90;;;;;;6218684;23;20193;-95
2021/09/22 13:54:33;;;;;;;3.57;2.87;;;13.60;99.90;;;;;;6221578;23;20194;-94
2021/09/22 13:57:05;;;;;;;4.13;2.50;;;13.70;99.90;;;;;;6222226;23;20176;-94
2021/09/22 13:59:40;;;;;;;4.47;2.63;;;13.70;99.90;;;;;;6221150;22;20215;-94
2021/09/22 14:02:15;;;;;;;3.10;2.43;;;13.70;99.90;;;;;;6219835;23;20176;-96
2021/09/22 14:04:49;;;;;;;4.10;2.60;;;13.70;99.90;;;;;;6219900;23;20615;-95
2021/09/22 14:07:21;;;;;;;2.53;2.33;;;13.70;99.90;;;;;;6221135;23;20270;-96
2021/09/22 14:09:56;;;;;;;3.53;2.40;;;13.70;99.90;;;;;;6222279;23;20164;-96
2021/09/22 14:12:27;;;;;;;3.97;2.50;;;13.70;99.90;;;;;;6170667;23;20173;-96
2021/09/22 14:14:59;;;;;;;3.90;2.80;;;13.70;99.90;;;;;;6221334;23;20181;-96
2021/09/22 14:17:31;;;;;;;6.40;3.00;;;13.70;99.90;;;;;;6221733;23;20184;-96
2021/09/22 14:20:07;;;;;;;3.80;2.53;;;13.70;99.90;;;;;;6231866;23;20169;-96